Time;durP1;ratioP1;P1;durP2;ratioP2;P2;SDS_P1;SDS_P2;PMS_P1;PMS_P2;Temp;Humidity;BMP_temperature;BMP_pressure;BME280_temperature;BME280_humidity;BME280_pressure;Samples;Min_cycle;Max_cycle;Signal;HPM_P1;HPM_P2
2021/09/16 00:01:00;;;;;;;14.57;7.47;;;19.10;97.30;;;;;;5075318;28;20668;-80
2021/09/16 00:03:26;;;;;;;9.57;6.47;;;19.10;97.30;;;;;;5075819;28;20221;-81
2021/09/16 00:05:52;;;;;;;14.33;7.20;;;19.10;97.30;;;;;;5075866;28;20175;-80
2021/09/16 00:08:18;;;;;;;12.33;6.70;;;19.10;97.30;;;;;;5076531;28;20202;-80
2021/09/16 00:10:43;;;;;;;12.43;7.07;;;19.10;97.30;;;;;;5077820;28;20250;-80
2021/09/16 00:13:09;;;;;;;12.80;7.23;;;19.10;97.30;;;;;;5076668;28;20246;-80
2021/09/16 00:15:35;;;;;;;12.33;7.70;;;19.10;97.30;;;;;;5067425;28;20208;-81
2021/09/16 00:18:00;;;;;;;14.13;7.60;;;19.10;97.30;;;;;;5057140;28;20351;-80
2021/09/16 00:20:26;;;;;;;13.30;7.40;;;19.10;97.30;;;;;;5058122;28;20802;-81
2021/09/16 00:22:52;;;;;;;15.93;7.70;;;19.10;97.30;;;;;;5053982;28;20290;-80
2021/09/16 00:25:17;;;;;;;11.07;6.63;;;19.10;97.30;;;;;;5055927;28;20248;-81
2021/09/16 00:27:43;;;;;;;10.43;7.40;;;19.10;97.30;;;;;;5052990;28;20271;-80
2021/09/16 00:30:10;;;;;;;10.27;7.17;;;19.10;97.30;;;;;;5056162;28;20184;-81
2021/09/16 00:32:37;;;;;;;11.30;7.53;;;19.10;97.30;;;;;;5056447;28;20196;-80
2021/09/16 00:35:03;;;;;;;14.70;8.47;;;19.20;97.30;;;;;;5056393;28;20793;-81
2021/09/16 00:37:29;;;;;;;15.83;7.53;;;19.20;97.30;;;;;;5070982;28;20492;-81
2021/09/16 00:39:54;;;;;;;12.30;8.10;;;19.10;97.30;;;;;;5075172;28;20440;-82
2021/09/16 00:42:20;;;;;;;18.63;7.70;;;19.10;97.30;;;;;;5075935;28;20579;-81
2021/09/16 00:44:46;;;;;;;11.00;7.27;;;19.20;97.30;;;;;;5076211;28;20210;-82
2021/09/16 00:47:13;;;;;;;15.33;7.20;;;19.20;97.30;;;;;;5076212;28;20207;-82
2021/09/16 00:49:39;;;;;;;16.30;7.43;;;19.10;97.30;;;;;;5059899;28;20175;-82
2021/09/16 00:52:06;;;;;;;12.73;7.47;;;19.10;97.30;;;;;;5055955;28;20410;-82
2021/09/16 00:54:34;;;;;;;13.23;7.93;;;19.20;97.30;;;;;;5062449;28;20171;-82
2021/09/16 00:57:02;;;;;;;13.73;7.10;;;19.20;97.30;;;;;;5076697;28;20797;-82
2021/09/16 00:59:28;;;;;;;13.47;7.30;;;19.20;97.30;;;;;;5074454;28;20425;-82
2021/09/16 01:01:54;;;;;;;17.47;8.30;;;19.10;97.30;;;;;;5076148;28;20417;-83
2021/09/16 01:04:20;;;;;;;16.80;8.30;;;19.10;97.30;;;;;;5077389;28;21309;-82
2021/09/16 01:06:46;;;;;;;15.90;8.47;;;19.10;97.30;;;;;;5075341;28;20171;-82
2021/09/16 01:09:12;;;;;;;12.83;8.07;;;19.10;97.30;;;;;;5075845;28;20163;-81
2021/09/16 01:11:37;;;;;;;13.70;8.07;;;19.10;97.30;;;;;;5077238;28;20413;-81
2021/09/16 01:14:03;;;;;;;14.60;7.93;;;19.10;97.30;;;;;;5075056;28;20203;-81
2021/09/16 01:16:29;;;;;;;13.60;8.03;;;19.10;97.30;;;;;;5074908;28;20566;-80
2021/09/16 01:18:55;;;;;;;18.03;9.07;;;19.10;97.30;;;;;;5075308;28;20175;-82
2021/09/16 01:21:21;;;;;;;16.27;9.10;;;19.10;97.30;;;;;;5076017;28;20181;-80
2021/09/16 01:23:49;;;;;;;20.30;10.40;;;19.10;97.30;;;;;;5074199;28;20226;-80
2021/09/16 01:26:14;;;;;;;22.10;10.07;;;19.10;97.30;;;;;;5074799;28;20470;-81
2021/09/16 01:28:40;;;;;;;14.20;9.20;;;19.10;97.30;;;;;;5075021;28;20919;-82
2021/09/16 01:31:05;;;;;;;15.77;9.13;;;19.20;97.30;;;;;;5076721;28;20257;-81
2021/09/16 01:33:31;;;;;;;21.40;10.20;;;19.10;97.30;;;;;;5074272;28;20217;-81
2021/09/16 01:35:56;;;;;;;22.97;11.33;;;19.10;97.30;;;;;;5070563;28;20184;-81
2021/09/16 01:38:22;;;;;;;26.80;12.80;;;19.20;97.30;;;;;;5054498;28;20778;-80
2021/09/16 01:40:47;;;;;;;24.10;12.40;;;19.10;97.30;;;;;;5054394;28;20180;-80
2021/09/16 01:43:15;;;;;;;22.07;12.37;;;19.10;97.30;;;;;;5065105;28;20226;-80
2021/09/16 01:45:41;;;;;;;24.60;11.73;;;19.10;97.30;;;;;;5074893;28;20187;-80
2021/09/16 01:48:06;;;;;;;28.13;14.77;;;19.10;97.30;;;;;;5069603;28;20435;-81
2021/09/16 01:50:32;;;;;;;29.03;12.77;;;19.10;97.30;;;;;;5056888;28;20172;-81
2021/09/16 01:52:58;;;;;;;23.53;11.93;;;19.00;97.30;;;;;;5073749;28;20577;-81
2021/09/16 01:55:24;;;;;;;24.83;12.93;;;19.00;97.30;;;;;;5074257;28;20417;-81
2021/09/16 01:57:49;;;;;;;22.13;11.83;;;19.00;97.30;;;;;;5074901;28;20559;-81
2021/09/16 02:00:16;;;;;;;27.17;12.53;;;18.90;97.30;;;;;;5074318;28;20219;-81
2021/09/16 02:02:42;;;;;;;28.40;14.00;;;18.90;97.30;;;;;;5074325;28;20578;-81
2021/09/16 02:05:08;;;;;;;25.93;13.43;;;18.90;97.30;;;;;;5075899;28;20481;-81
2021/09/16 02:07:34;;;;;;;28.33;14.10;;;18.80;97.30;;;;;;5057269;28;20500;-81
2021/09/16 02:09:59;;;;;;;28.60;14.27;;;18.80;97.30;;;;;;5053728;28;20520;-80
2021/09/16 02:12:25;;;;;;;29.27;14.53;;;18.80;97.30;;;;;;5053622;28;20656;-81
2021/09/16 02:14:51;;;;;;;33.00;15.00;;;18.80;97.30;;;;;;5060004;28;20289;-81
2021/09/16 02:17:16;;;;;;;30.67;15.00;;;18.70;97.30;;;;;;5073665;28;20312;-81
2021/09/16 02:19:42;;;;;;;27.93;14.27;;;18.70;97.30;;;;;;5074923;28;20415;-81
2021/09/16 02:22:08;;;;;;;31.50;16.30;;;18.70;97.30;;;;;;5075395;28;20179;-82
2021/09/16 02:24:33;;;;;;;43.60;17.10;;;18.60;97.30;;;;;;5074187;28;20268;-81
2021/09/16 02:26:59;;;;;;;33.50;16.43;;;18.60;97.30;;;;;;5074191;28;20171;-81
2021/09/16 02:29:24;;;;;;;39.70;16.27;;;18.60;97.30;;;;;;5075716;28;20538;-81
2021/09/16 02:31:50;;;;;;;38.13;16.50;;;18.50;97.30;;;;;;5074026;28;20179;-81
2021/09/16 02:34:16;;;;;;;44.57;17.43;;;18.50;97.30;;;;;;5074609;28;20244;-81
2021/09/16 02:36:41;;;;;;;41.57;18.57;;;18.50;97.30;;;;;;5061305;28;20191;-82
2021/09/16 02:39:07;;;;;;;43.10;19.73;;;18.40;97.30;;;;;;5053858;28;20253;-81
2021/09/16 02:41:33;;;;;;;50.00;19.60;;;18.40;97.30;;;;;;5054430;28;20175;-81
2021/09/16 02:43:58;;;;;;;39.63;18.03;;;18.40;97.30;;;;;;5055055;28;20230;-81
2021/09/16 02:46:24;;;;;;;45.33;18.93;;;18.40;97.30;;;;;;5053575;28;20183;-80
2021/09/16 02:48:50;;;;;;;47.57;20.13;;;18.40;97.30;;;;;;5063305;28;20416;-81
2021/09/16 02:51:16;;;;;;;45.30;19.90;;;18.30;97.30;;;;;;5073785;28;20530;-80
2021/09/16 02:53:41;;;;;;;50.40;20.07;;;18.30;97.30;;;;;;5073801;28;20512;-81
2021/09/16 02:56:07;;;;;;;46.77;21.00;;;18.30;97.30;;;;;;5081011;28;20181;-80
2021/09/16 02:58:33;;;;;;;53.93;22.07;;;18.30;97.30;;;;;;5093499;28;20258;-81
2021/09/16 03:00:58;;;;;;;45.57;20.17;;;18.30;97.30;;;;;;5097859;28;20174;-82
2021/09/16 03:03:24;;;;;;;54.40;22.60;;;18.30;97.30;;;;;;5099882;28;20190;-81
2021/09/16 03:05:50;;;;;;;50.50;21.70;;;18.20;97.30;;;;;;5090881;28;20629;-81
2021/09/16 03:08:15;;;;;;;51.40;20.37;;;18.20;97.30;;;;;;5078995;28;20179;-81
2021/09/16 03:10:41;;;;;;;56.07;23.63;;;18.20;97.30;;;;;;5077475;28;20187;-81
2021/09/16 03:13:06;;;;;;;47.87;22.00;;;18.20;97.30;;;;;;5078648;28;20237;-82
2021/09/16 03:15:32;;;;;;;54.80;22.90;;;18.10;97.30;;;;;;5079818;28;20595;-81
2021/09/16 03:17:58;;;;;;;51.97;22.63;;;18.10;97.30;;;;;;5077714;28;20190;-81
2021/09/16 03:20:24;;;;;;;51.17;22.47;;;18.10;97.30;;;;;;5077947;28;20179;-80
2021/09/16 03:22:49;;;;;;;57.80;24.13;;;18.00;97.30;;;;;;5077072;28;20202;-80
2021/09/16 03:25:15;;;;;;;59.17;24.20;;;18.00;97.30;;;;;;5073649;28;20177;-81
2021/09/16 03:27:42;;;;;;;59.67;23.17;;;18.00;97.30;;;;;;5077437;28;20179;-80
2021/09/16 03:30:09;;;;;;;56.77;23.03;;;18.10;97.30;;;;;;5077030;28;20440;-81
2021/09/16 03:32:35;;;;;;;57.67;24.30;;;18.00;97.30;;;;;;5078372;28;20425;-81
2021/09/16 03:35:01;;;;;;;59.00;24.37;;;18.00;97.30;;;;;;5076629;28;20930;-80
2021/09/16 03:37:27;;;;;;;61.20;25.27;;;18.00;97.30;;;;;;5075595;28;20187;-80
2021/09/16 03:39:52;;;;;;;59.93;24.10;;;18.00;97.30;;;;;;5078231;28;20179;-81
2021/09/16 03:42:18;;;;;;;54.30;22.83;;;18.00;97.30;;;;;;5077568;28;20199;-80
2021/09/16 03:44:43;;;;;;;59.90;23.47;;;18.00;97.30;;;;;;5077700;28;20213;-80
2021/09/16 03:47:11;;;;;;;55.20;22.40;;;18.00;97.30;;;;;;5079623;28;20451;-80
2021/09/16 03:49:38;;;;;;;58.80;23.87;;;18.00;97.30;;;;;;5078909;28;20321;-81
2021/09/16 03:52:05;;;;;;;59.57;23.20;;;18.00;97.30;;;;;;5078694;28;20424;-80
2021/09/16 03:54:31;;;;;;;62.27;23.67;;;18.00;97.30;;;;;;5079202;28;20516;-81
2021/09/16 03:56:56;;;;;;;58.57;23.07;;;18.00;97.30;;;;;;5079376;28;20452;-81
2021/09/16 03:59:22;;;;;;;53.30;23.83;;;18.00;97.30;;;;;;5079061;28;20657;-81
2021/09/16 04:01:47;;;;;;;54.90;22.90;;;18.00;97.30;;;;;;5076265;28;20189;-81
2021/09/16 04:04:13;;;;;;;61.33;24.90;;;18.00;97.30;;;;;;5078482;28;20684;-81
2021/09/16 04:06:38;;;;;;;54.87;22.90;;;18.00;97.30;;;;;;5072743;28;20475;-81
2021/09/16 04:09:04;;;;;;;55.90;24.33;;;17.90;97.30;;;;;;5068509;28;20187;-81
2021/09/16 04:11:30;;;;;;;52.67;23.13;;;17.90;97.30;;;;;;5066046;28;20180;-80
2021/09/16 04:13:55;;;;;;;50.07;21.80;;;17.90;97.30;;;;;;5067609;28;20191;-80
2021/09/16 04:16:21;;;;;;;56.97;23.60;;;17.90;97.30;;;;;;5069727;28;20608;-80
2021/09/16 04:18:46;;;;;;;47.93;21.47;;;17.90;97.30;;;;;;5068166;28;20202;-81
2021/09/16 04:21:12;;;;;;;52.40;22.77;;;17.90;97.30;;;;;;5070202;28;20229;-81
2021/09/16 04:23:38;;;;;;;50.43;22.50;;;17.90;97.30;;;;;;5073991;28;20203;-80
2021/09/16 04:26:03;;;;;;;53.40;22.30;;;17.90;97.30;;;;;;5073876;28;20266;-81
2021/09/16 04:28:29;;;;;;;55.80;22.60;;;17.80;97.30;;;;;;5079318;28;20182;-81
2021/09/16 04:30:54;;;;;;;55.67;23.47;;;17.80;97.30;;;;;;5068551;28;20213;-81
2021/09/16 04:33:20;;;;;;;54.93;22.10;;;17.80;97.30;;;;;;5057661;28;20225;-80
2021/09/16 04:35:46;;;;;;;58.73;24.13;;;17.80;97.30;;;;;;5058795;28;20180;-82
2021/09/16 04:38:14;;;;;;;56.30;23.40;;;17.80;97.30;;;;;;5073412;28;20671;-82
2021/09/16 04:40:41;;;;;;;62.90;23.53;;;17.80;97.30;;;;;;5079291;28;20409;-83
2021/09/16 04:43:07;;;;;;;62.80;24.17;;;17.80;97.30;;;;;;5077185;28;21028;-81
2021/09/16 04:45:32;;;;;;;55.20;24.67;;;17.80;97.30;;;;;;5078601;28;20406;-80
2021/09/16 04:47:58;;;;;;;46.87;22.50;;;17.80;97.30;;;;;;5079875;28;20179;-80
2021/09/16 04:50:24;;;;;;;46.17;21.77;;;17.70;97.30;;;;;;5078849;28;20171;-80
2021/09/16 04:52:49;;;;;;;42.17;19.90;;;17.70;97.30;;;;;;5077917;28;20206;-80
2021/09/16 04:55:15;;;;;;;42.03;17.77;;;17.70;97.30;;;;;;5078116;28;20187;-80
2021/09/16 04:57:41;;;;;;;36.37;15.80;;;17.60;97.30;;;;;;5078594;28;20243;-80
2021/09/16 05:00:07;;;;;;;29.87;14.53;;;17.60;97.30;;;;;;5077810;28;20266;-82
2021/09/16 05:02:33;;;;;;;25.93;12.27;;;17.50;97.30;;;;;;5082343;28;20683;-81
2021/09/16 05:04:59;;;;;;;29.20;13.67;;;17.50;97.30;;;;;;5063794;28;20455;-81
2021/09/16 05:07:24;;;;;;;28.13;12.10;;;17.40;97.30;;;;;;5057897;28;20168;-82
2021/09/16 05:09:50;;;;;;;26.20;11.60;;;17.40;97.30;;;;;;5058415;28;20168;-81
2021/09/16 05:12:16;;;;;;;31.30;13.57;;;17.30;97.30;;;;;;5072544;28;20221;-81
2021/09/16 05:14:41;;;;;;;27.53;13.63;;;17.30;97.30;;;;;;5078277;28;20214;-81
2021/09/16 05:17:07;;;;;;;27.57;12.77;;;17.30;97.30;;;;;;5077499;28;20186;-81
2021/09/16 05:19:32;;;;;;;25.60;12.77;;;17.30;97.30;;;;;;5071279;28;20176;-82
2021/09/16 05:21:58;;;;;;;32.40;13.00;;;17.30;97.30;;;;;;5074338;28;20178;-81
2021/09/16 05:24:23;;;;;;;31.10;13.90;;;17.30;97.30;;;;;;5063975;28;20199;-82
2021/09/16 05:26:49;;;;;;;26.03;12.40;;;17.30;97.30;;;;;;5068580;28;20167;-81
2021/09/16 05:29:15;;;;;;;28.87;13.97;;;17.30;97.30;;;;;;5067600;28;20179;-81
2021/09/16 05:31:40;;;;;;;29.80;13.87;;;17.30;97.30;;;;;;5068508;28;20201;-80
2021/09/16 05:34:06;;;;;;;29.00;13.30;;;17.30;97.30;;;;;;5069825;28;20191;-82
2021/09/16 05:36:32;;;;;;;28.73;14.10;;;17.40;97.30;;;;;;5068895;28;20179;-81
2021/09/16 05:38:58;;;;;;;30.63;12.90;;;17.40;97.30;;;;;;5065786;28;20179;-82
2021/09/16 05:41:24;;;;;;;27.50;13.70;;;17.40;97.30;;;;;;5065193;28;20414;-81
2021/09/16 05:43:51;;;;;;;31.57;14.50;;;17.40;97.30;;;;;;5065575;28;20470;-82
2021/09/16 05:46:16;;;;;;;31.70;11.90;;;17.40;97.30;;;;;;5057212;28;20176;-82
2021/09/16 05:48:42;;;;;;;26.63;12.60;;;17.40;97.30;;;;;;5056782;28;20422;-81
2021/09/16 05:51:07;;;;;;;21.90;11.23;;;17.40;97.30;;;;;;5057380;28;20171;-81
2021/09/16 05:53:33;;;;;;;25.10;10.47;;;17.40;97.30;;;;;;5055550;28;20192;-82
2021/09/16 05:55:59;;;;;;;21.70;11.50;;;17.40;97.30;;;;;;5055345;28;20379;-81
2021/09/16 05:58:24;;;;;;;21.00;10.03;;;17.40;97.30;;;;;;5071540;28;20176;-82
2021/09/16 06:00:50;;;;;;;25.10;10.53;;;17.40;97.30;;;;;;5055170;28;20176;-82
2021/09/16 06:03:16;;;;;;;21.30;10.60;;;17.40;97.30;;;;;;5056443;28;20211;-82
2021/09/16 06:05:41;;;;;;;26.70;10.27;;;17.40;97.30;;;;;;5056796;28;20176;-82
2021/09/16 06:08:07;;;;;;;30.60;11.63;;;17.40;97.30;;;;;;5073304;28;20560;-82
2021/09/16 06:10:33;;;;;;;22.37;11.10;;;17.40;97.30;;;;;;5056456;28;20175;-81
2021/09/16 06:12:58;;;;;;;23.73;10.50;;;17.40;97.30;;;;;;5056909;28;20237;-81
2021/09/16 06:15:24;;;;;;;23.53;10.90;;;17.40;97.30;;;;;;5055896;28;20911;-80
2021/09/16 06:17:50;;;;;;;23.33;10.70;;;17.40;97.30;;;;;;5072447;28;20176;-81
2021/09/16 06:20:16;;;;;;;25.10;10.80;;;17.40;97.30;;;;;;5055651;28;20186;-82
2021/09/16 06:22:45;;;;;;;19.17;10.30;;;17.40;97.30;;;;;;5055255;28;20192;-82
2021/09/16 06:25:11;;;;;;;20.27;10.40;;;17.50;97.30;;;;;;5056585;28;20211;-82
2021/09/16 06:27:37;;;;;;;23.47;10.90;;;17.50;97.30;;;;;;5071098;28;20418;-82
2021/09/16 06:30:03;;;;;;;29.80;13.03;;;17.50;97.30;;;;;;5071106;28;20679;-82
2021/09/16 06:32:29;;;;;;;28.50;13.20;;;17.50;97.30;;;;;;5070858;28;20203;-82
2021/09/16 06:34:54;;;;;;;27.53;12.27;;;17.50;97.30;;;;;;5070959;28;20435;-82
2021/09/16 06:37:20;;;;;;;22.47;10.80;;;17.50;97.30;;;;;;5069394;28;20231;-82
2021/09/16 06:39:47;;;;;;;28.70;13.53;;;17.50;97.30;;;;;;5071240;28;20199;-82
2021/09/16 06:42:12;;;;;;;20.50;10.33;;;17.60;97.30;;;;;;5070822;28;20251;-82
2021/09/16 06:44:39;;;;;;;28.57;14.10;;;17.60;97.30;;;;;;5070880;28;20478;-82
2021/09/16 06:47:05;;;;;;;31.70;13.30;;;17.60;97.30;;;;;;5070884;28;20420;-82
2021/09/16 06:49:36;;;;;;;28.30;12.70;;;17.60;97.30;;;;;;5060027;28;20172;-82
2021/09/16 06:52:02;;;;;;;24.77;12.33;;;17.60;97.30;;;;;;5054418;28;20414;-82
2021/09/16 06:54:27;;;;;;;27.60;12.87;;;17.60;97.30;;;;;;5054339;28;20923;-83
2021/09/16 06:56:53;;;;;;;27.43;12.53;;;17.60;97.30;;;;;;5054375;28;20191;-82
2021/09/16 06:59:18;;;;;;;21.90;11.17;;;17.60;97.30;;;;;;5054060;28;20178;-81
2021/09/16 07:01:44;;;;;;;20.80;10.90;;;17.50;97.30;;;;;;5054034;28;20172;-82
2021/09/16 07:04:09;;;;;;;23.10;11.20;;;17.50;97.30;;;;;;5055264;28;20207;-82
2021/09/16 07:06:35;;;;;;;22.30;10.30;;;17.50;97.30;;;;;;5062122;28;20175;-82
2021/09/16 07:09:00;;;;;;;22.30;10.13;;;17.50;97.30;;;;;;5076780;28;20258;-83
2021/09/16 07:11:26;;;;;;;25.20;10.67;;;17.50;97.30;;;;;;5075357;28;20176;-83
2021/09/16 07:13:51;;;;;;;20.63;10.03;;;17.50;97.30;;;;;;5074152;28;20225;-82
2021/09/16 07:16:17;;;;;;;23.03;9.80;;;17.50;97.30;;;;;;5074700;28;20501;-82
2021/09/16 07:18:43;;;;;;;22.70;9.20;;;17.50;97.30;;;;;;5074185;28;20248;-82
2021/09/16 07:21:08;;;;;;;19.03;9.00;;;17.50;97.30;;;;;;5074066;28;20183;-82
2021/09/16 07:23:34;;;;;;;20.23;9.00;;;17.50;97.30;;;;;;5074203;28;20769;-83
2021/09/16 07:25:59;;;;;;;16.43;8.27;;;17.50;97.30;;;;;;5074352;28;20167;-82
2021/09/16 07:28:25;;;;;;;16.57;7.27;;;17.50;97.30;;;;;;5073091;28;20551;-82
2021/09/16 07:30:51;;;;;;;16.40;8.87;;;17.50;97.30;;;;;;5075513;28;20430;-81
2021/09/16 07:33:16;;;;;;;16.27;8.03;;;17.50;97.30;;;;;;5075976;28;20199;-82
2021/09/16 07:35:42;;;;;;;17.20;8.80;;;17.50;97.30;;;;;;5074566;28;20175;-82
2021/09/16 07:38:07;;;;;;;16.40;9.30;;;17.60;97.30;;;;;;5075598;28;20176;-82
2021/09/16 07:40:33;;;;;;;18.37;8.67;;;17.60;97.30;;;;;;5075366;28;20171;-82
2021/09/16 07:42:59;;;;;;;20.10;9.40;;;17.70;97.30;;;;;;5073900;28;20238;-82
2021/09/16 07:45:24;;;;;;;14.70;8.67;;;17.70;97.30;;;;;;5071181;28;20186;-82
2021/09/16 07:47:50;;;;;;;20.87;9.70;;;17.80;97.30;;;;;;5058121;28;20709;-82
2021/09/16 07:50:16;;;;;;;18.20;9.73;;;17.80;97.30;;;;;;5066477;28;20178;-82
2021/09/16 07:52:41;;;;;;;16.37;8.17;;;17.80;97.30;;;;;;5077800;28;20259;-81
2021/09/16 07:55:07;;;;;;;13.87;7.83;;;17.80;97.30;;;;;;5077999;28;20179;-82
2021/09/16 07:57:33;;;;;;;21.10;9.47;;;17.90;97.30;;;;;;5078499;28;20179;-81
2021/09/16 07:59:58;;;;;;;15.27;7.67;;;17.90;97.30;;;;;;5078045;28;20481;-82
2021/09/16 08:02:24;;;;;;;15.80;8.43;;;18.00;97.30;;;;;;5075954;28;20194;-82
2021/09/16 08:04:49;;;;;;;14.67;7.47;;;18.00;97.30;;;;;;5078202;28;20230;-82
2021/09/16 08:07:15;;;;;;;18.63;8.80;;;18.00;97.30;;;;;;5077173;28;20182;-82
2021/09/16 08:09:40;;;;;;;21.20;8.83;;;18.10;97.30;;;;;;5077333;28;20198;-82
2021/09/16 08:12:06;;;;;;;12.00;7.60;;;18.10;97.30;;;;;;5077118;28;20171;-82
2021/09/16 08:14:32;;;;;;;12.83;7.70;;;18.10;97.30;;;;;;5077616;28;20190;-82
2021/09/16 08:16:58;;;;;;;18.03;7.27;;;18.10;97.30;;;;;;5078460;28;20190;-82
2021/09/16 08:19:24;;;;;;;14.20;8.20;;;18.10;97.30;;;;;;5076465;28;20178;-82
2021/09/16 08:21:49;;;;;;;11.77;5.97;;;18.10;97.30;;;;;;5059272;28;20464;-82
2021/09/16 08:24:15;;;;;;;10.43;6.43;;;18.10;97.30;;;;;;5057375;28;20219;-82
2021/09/16 08:26:41;;;;;;;11.27;6.47;;;18.10;97.30;;;;;;5057901;28;20190;-82
2021/09/16 08:29:07;;;;;;;13.23;7.40;;;18.10;97.30;;;;;;5057399;28;20191;-82
2021/09/16 08:31:32;;;;;;;10.87;6.20;;;18.10;97.30;;;;;;5057938;28;20595;-82
2021/09/16 08:33:58;;;;;;;12.27;6.87;;;18.20;97.30;;;;;;5058259;28;20203;-82
2021/09/16 08:36:24;;;;;;;10.47;6.77;;;18.20;97.30;;;;;;5057915;28;20206;-82
2021/09/16 08:38:49;;;;;;;7.53;5.17;;;18.20;97.30;;;;;;5057252;28;20180;-82
2021/09/16 08:41:15;;;;;;;5.97;4.57;;;18.10;97.30;;;;;;5056991;28;20179;-82
2021/09/16 08:43:42;;;;;;;17.03;5.30;;;18.00;97.30;;;;;;5056841;28;20239;-82
2021/09/16 08:46:08;;;;;;;5.57;4.40;;;18.00;97.30;;;;;;5057021;28;20293;-81
2021/09/16 08:48:34;;;;;;;7.03;4.40;;;17.90;97.30;;;;;;5063499;28;20474;-82
2021/09/16 08:51:00;;;;;;;7.20;4.03;;;17.80;97.30;;;;;;5077501;28;20175;-81
2021/09/16 08:53:28;;;;;;;9.63;4.40;;;17.70;97.30;;;;;;5076982;28;20229;-83
2021/09/16 08:55:56;;;;;;;8.23;4.30;;;17.60;97.30;;;;;;5080202;28;20433;-80
2021/09/16 08:58:26;;;;;;;5.40;4.17;;;17.60;97.30;;;;;;5079160;28;20430;-80
2021/09/16 09:00:52;;;;;;;6.90;4.53;;;17.50;97.30;;;;;;5079692;28;20418;-81
2021/09/16 09:03:18;;;;;;;8.90;5.00;;;17.50;97.30;;;;;;5080375;28;20465;-80
2021/09/16 09:05:44;;;;;;;18.60;4.30;;;17.40;97.30;;;;;;5080753;28;20405;-80
2021/09/16 09:08:11;;;;;;;6.00;4.17;;;17.40;97.30;;;;;;5078841;28;20187;-81
2021/09/16 09:10:44;;;;;;;5.03;3.70;;;17.50;97.30;;;;;;5078748;28;20516;-84
2021/09/16 09:13:27;;;;;;;5.60;3.17;;;17.50;97.30;;;;;;5076965;28;20439;-83
2021/09/16 09:16:04;;;;;;;4.30;2.70;;;17.50;97.30;;;;;;5078415;28;20421;-81
2021/09/16 09:18:48;;;;;;;3.37;2.37;;;17.50;97.30;;;;;;5078818;28;20417;-84
2021/09/16 09:21:16;;;;;;;4.23;3.10;;;17.50;97.30;;;;;;5062716;28;20422;-82
2021/09/16 09:23:54;;;;;;;2.40;2.10;;;17.50;97.30;;;;;;5058199;28;20493;-80
2021/09/16 09:26:32;;;;;;;4.80;2.43;;;17.60;97.30;;;;;;5057090;28;20418;-86
2021/09/16 09:29:14;;;;;;;2.30;2.00;;;17.60;97.30;;;;;;5059736;28;20485;-81
2021/09/16 09:32:01;;;;;;;4.77;2.20;;;17.60;97.30;;;;;;5058483;28;20920;-81
2021/09/16 09:34:26;;;;;;;4.80;2.13;;;17.60;97.30;;;;;;5057257;28;20931;-82
2021/09/16 09:37:05;;;;;;;6.43;2.50;;;17.60;97.30;;;;;;5057662;28;20414;-81
2021/09/16 09:39:31;;;;;;;6.03;2.67;;;17.70;97.30;;;;;;5056859;28;20191;-83
2021/09/16 09:42:23;;;;;;;7.30;3.47;;;17.70;97.30;;;;;;5057175;28;20454;-84
2021/09/16 09:44:54;;;;;;;3.83;2.33;;;17.80;97.30;;;;;;5057348;28;20212;-80
2021/09/16 09:47:47;;;;;;;6.67;2.60;;;18.00;97.30;;;;;;5053121;28;20931;-82
2021/09/16 09:50:21;;;;;;;7.33;2.70;;;18.20;97.30;;;;;;5057699;28;20494;-81
2021/09/16 09:52:48;;;;;;;4.87;3.37;;;18.40;97.30;;;;;;5054701;28;20523;-79
2021/09/16 09:55:16;;;;;;;4.80;3.00;;;18.50;97.30;;;;;;5054462;28;20497;-84
2021/09/16 09:57:43;;;;;;;4.77;3.30;;;18.70;97.30;;;;;;5057545;28;20493;-84
2021/09/16 10:00:14;;;;;;;4.53;2.13;;;18.90;97.30;;;;;;5056206;28;20414;-85
2021/09/16 10:02:45;;;;;;;5.07;3.00;;;18.90;97.30;;;;;;5055224;28;20434;-81
2021/09/16 10:05:26;;;;;;;5.30;2.50;;;18.90;97.30;;;;;;5054753;28;20442;-80
2021/09/16 10:07:53;;;;;;;3.70;2.40;;;18.90;97.30;;;;;;5054709;28;20406;-80
2021/09/16 10:10:19;;;;;;;7.80;2.80;;;18.90;97.30;;;;;;5055916;28;20422;-82
2021/09/16 10:12:47;;;;;;;3.60;2.60;;;18.80;97.30;;;;;;5068617;28;20503;-80
2021/09/16 10:15:16;;;;;;;3.20;2.10;;;18.80;97.30;;;;;;5075296;28;20425;-80
2021/09/16 10:17:42;;;;;;;4.30;2.87;;;18.80;97.30;;;;;;5075104;28;20413;-83
2021/09/16 10:20:11;;;;;;;6.63;2.77;;;18.90;97.30;;;;;;5073812;28;20922;-80
2021/09/16 10:22:37;;;;;;;4.00;2.93;;;18.90;97.30;;;;;;5073546;28;20954;-80
2021/09/16 10:25:05;;;;;;;6.10;3.13;;;18.90;97.30;;;;;;5073567;28;20531;-80
2021/09/16 10:27:36;;;;;;;3.83;2.90;;;18.80;97.30;;;;;;5071684;28;20413;-81
2021/09/16 10:30:23;;;;;;;5.77;3.10;;;18.80;97.30;;;;;;5073898;28;20406;-79
2021/09/16 10:33:13;;;;;;;6.63;3.20;;;18.80;97.30;;;;;;5072673;28;20432;-81
2021/09/16 10:35:43;;;;;;;4.60;2.90;;;18.80;97.30;;;;;;5074454;28;20445;-81
2021/09/16 10:38:41;;;;;;;4.40;3.17;;;18.80;97.30;;;;;;5074000;28;20425;-81
2021/09/16 10:41:18;;;;;;;4.93;3.07;;;18.70;97.30;;;;;;5072140;28;20918;-81
2021/09/16 10:43:58;;;;;;;4.10;3.07;;;18.70;97.30;;;;;;5073710;28;20468;-81
2021/09/16 10:46:36;;;;;;;6.00;3.33;;;18.70;97.30;;;;;;5073948;28;20512;-80
2021/09/16 10:49:20;;;;;;;3.77;2.73;;;18.70;97.30;;;;;;5062494;28;20521;-81
2021/09/16 10:51:47;;;;;;;6.23;3.00;;;18.70;97.30;;;;;;5051424;28;20419;-82
2021/09/16 10:54:22;;;;;;;4.40;2.87;;;18.70;97.30;;;;;;5053171;28;20986;-80
2021/09/16 10:57:07;;;;;;;7.90;4.17;;;18.70;97.30;;;;;;5052936;28;20462;-81
2021/09/16 10:59:51;;;;;;;5.47;3.60;;;18.70;97.30;;;;;;5075935;28;20425;-80
2021/09/16 11:02:38;;;;;;;7.80;3.73;;;18.70;97.30;;;;;;5073415;28;20445;-80
2021/09/16 11:05:12;;;;;;;6.97;3.57;;;18.70;97.30;;;;;;5072429;28;20468;-80
2021/09/16 11:07:38;;;;;;;10.17;4.40;;;18.70;97.30;;;;;;5071972;28;20429;-80
2021/09/16 11:10:16;;;;;;;6.70;4.23;;;18.60;97.30;;;;;;5052280;28;20406;-81
2021/09/16 11:12:55;;;;;;;7.70;4.60;;;18.60;97.30;;;;;;5054367;28;20206;-80
2021/09/16 11:15:38;;;;;;;9.20;3.80;;;18.50;97.30;;;;;;5058351;28;20528;-81
2021/09/16 11:18:07;;;;;;;8.03;4.27;;;18.50;97.30;;;;;;5058475;28;20422;-82
2021/09/16 11:20:33;;;;;;;5.77;4.20;;;18.50;97.30;;;;;;5056672;28;20422;-78
2021/09/16 11:22:59;;;;;;;7.53;3.73;;;18.60;97.30;;;;;;5056291;28;20468;-79
2021/09/16 11:25:25;;;;;;;5.70;3.60;;;18.60;97.30;;;;;;5057058;28;20426;-80
2021/09/16 11:27:55;;;;;;;7.20;3.67;;;18.60;97.30;;;;;;5056495;28;20203;-81
2021/09/16 11:30:22;;;;;;;7.70;3.53;;;18.60;97.30;;;;;;5057583;28;20430;-80
2021/09/16 11:32:48;;;;;;;4.63;3.60;;;18.70;97.30;;;;;;5056209;28;20491;-80
2021/09/16 11:35:16;;;;;;;11.97;3.50;;;18.70;97.30;;;;;;5057057;28;20429;-79
2021/09/16 11:37:44;;;;;;;6.23;3.67;;;18.70;97.30;;;;;;5073592;28;20429;-79
2021/09/16 11:40:18;;;;;;;8.37;3.90;;;18.70;97.30;;;;;;5075345;28;20787;-81
2021/09/16 11:42:49;;;;;;;5.20;3.97;;;18.70;97.30;;;;;;5073889;28;20473;-80
2021/09/16 11:45:35;;;;;;;5.97;3.47;;;18.80;97.30;;;;;;5064238;28;20490;-79
2021/09/16 11:48:08;;;;;;;6.10;4.30;;;18.80;97.30;;;;;;5057633;28;20424;-79
2021/09/16 11:50:44;;;;;;;5.67;3.50;;;18.80;97.30;;;;;;5057877;28;20425;-80
2021/09/16 11:53:18;;;;;;;5.40;3.30;;;18.80;97.30;;;;;;5056302;28;20438;-81
2021/09/16 11:55:47;;;;;;;6.33;3.70;;;18.90;97.30;;;;;;5057211;28;20807;-84
2021/09/16 11:58:15;;;;;;;7.83;4.30;;;18.90;97.30;;;;;;5055967;28;20480;-85
2021/09/16 12:00:47;;;;;;;7.80;3.70;;;19.00;97.30;;;;;;5057425;28;20422;-82
2021/09/16 12:03:17;;;;;;;5.37;3.43;;;19.30;97.30;;;;;;5056034;28;20519;-80
2021/09/16 12:05:44;;;;;;;4.20;3.27;;;19.50;97.30;;;;;;5056104;28;20525;-80
2021/09/16 12:08:16;;;;;;;8.00;3.40;;;19.80;97.30;;;;;;5058190;28;20449;-81
2021/09/16 12:10:49;;;;;;;6.50;3.70;;;20.00;97.30;;;;;;5058128;28;20532;-79
2021/09/16 12:13:19;;;;;;;7.97;3.27;;;20.20;97.30;;;;;;5056749;28;20434;-81
2021/09/16 12:15:46;;;;;;;6.03;2.90;;;20.20;97.30;;;;;;5056955;28;20927;-80
2021/09/16 12:18:12;;;;;;;5.13;3.40;;;20.30;96.50;;;;;;5055236;28;20789;-80
2021/09/16 12:20:40;;;;;;;7.20;3.43;;;20.40;96.20;;;;;;5057025;28;20422;-81
2021/09/16 12:23:09;;;;;;;5.33;3.27;;;20.50;96.00;;;;;;5055884;28;20521;-80
2021/09/16 12:26:14;;;;;;;4.73;3.80;;;20.30;94.90;;;;;;5054127;28;20788;-81
2021/09/16 12:28:55;;;;;;;7.77;3.30;;;20.40;95.70;;;;;;5053516;28;20471;-83
2021/09/16 12:31:23;;;;;;;3.50;2.70;;;20.50;95.60;;;;;;5079090;28;20505;-79
2021/09/16 12:33:57;;;;;;;4.63;2.40;;;20.60;95.70;;;;;;5095154;28;20440;-79
2021/09/16 12:36:23;;;;;;;6.07;2.50;;;20.60;95.20;;;;;;5054854;28;20429;-79
2021/09/16 12:38:59;;;;;;;4.90;2.30;;;20.60;94.20;;;;;;5055104;28;20509;-79